createdAt,value
2018-02-24T00:00:34.796Z,1.34
2018-02-24T00:01:34.837Z,1.26
2018-02-24T00:02:34.520Z,1.22
2018-02-24T00:03:35.038Z,1.23
2018-02-24T00:04:34.765Z,1.19
2018-02-24T00:05:35.001Z,1.17
2018-02-24T00:06:34.739Z,1.26
2018-02-24T00:07:35.011Z,1.24
2018-02-24T00:08:34.968Z,1.24
2018-02-24T00:09:34.953Z,1.16
2018-02-24T00:10:34.684Z,1.26
2018-02-24T00:11:34.945Z,1.2
2018-02-24T00:12:34.912Z,1.23
2018-02-24T00:13:34.909Z,1.28
2018-02-24T00:14:35.140Z,1.19
2018-02-24T00:15:34.636Z,1.22
2018-02-24T00:16:34.900Z,1.26
2018-02-24T00:17:34.918Z,1.17
2018-02-24T00:18:34.861Z,1.2
2018-02-24T00:19:34.826Z,1.13
2018-02-24T00:20:34.826Z,1.16
2018-02-24T00:21:34.572Z,1.17
2018-02-24T00:22:34.960Z,1.19
2018-02-24T00:23:34.794Z,1.24
2018-02-24T00:24:34.771Z,1.17
2018-02-24T00:25:34.776Z,1.17
2018-02-24T00:26:34.743Z,1.2
2018-02-24T00:27:34.482Z,1.14
2018-02-24T00:28:34.503Z,1.19
2018-02-24T00:29:34.473Z,1.14
2018-02-24T00:30:34.711Z,1.17
2018-02-24T00:31:34.686Z,1.2
2018-02-24T00:32:34.675Z,1.14
2018-02-24T00:33:34.667Z,1.14
2018-02-24T00:34:34.674Z,1.17
2018-02-24T00:35:34.224Z,1.14
2018-02-24T00:36:34.374Z,1.14
2018-02-24T00:37:34.618Z,1.14
2018-02-24T00:38:34.357Z,1.06
2018-02-24T00:39:34.593Z,1.04
2018-02-24T00:40:34.590Z,1.06
2018-02-24T00:41:34.595Z,1.08
2018-02-24T00:42:34.312Z,0.98
2018-02-24T00:43:34.293Z,1.01
2018-02-24T00:44:34.549Z,1.06
2018-02-24T00:45:34.273Z,1.1
2018-02-24T00:46:34.261Z,1.08
2018-02-24T00:47:34.523Z,1.16
2018-02-24T00:48:34.501Z,1.2
2018-02-24T00:49:34.219Z,1.16
2018-02-24T00:50:34.478Z,1.16
2018-02-24T00:51:34.207Z,1.23
2018-02-24T00:52:35.863Z,1.14
2018-02-24T00:53:34.430Z,1.14
2018-02-24T00:54:34.508Z,1.19
2018-02-24T00:55:34.413Z,1.17
2018-02-24T00:56:33.884Z,0.96
2018-02-24T00:57:34.454Z,0.98
2018-02-24T00:58:34.206Z,1.01
2018-02-24T00:59:34.352Z,0.96
2018-02-24T01:00:34.341Z,1.04
2018-02-24T01:01:34.330Z,0.99
2018-02-24T01:02:34.192Z,1.04
2018-02-24T01:03:34.049Z,1.04
2018-02-24T01:04:33.794Z,1.04
2018-02-24T01:05:34.356Z,0.99
2018-02-24T01:06:34.267Z,1.02
2018-02-24T01:07:34.008Z,1.05
2018-02-24T01:08:33.990Z,1.16
2018-02-24T01:09:34.237Z,1.05
2018-02-24T01:10:34.220Z,1.12
2018-02-24T01:11:33.962Z,1.06
2018-02-24T01:12:34.196Z,1.14
2018-02-24T01:13:33.936Z,1.24
2018-02-24T01:14:34.176Z,1.14
2018-02-24T01:15:33.915Z,1.2
2018-02-24T01:16:34.150Z,1.14
2018-02-24T01:17:33.881Z,1.12
2018-02-24T01:18:34.125Z,0.96
2018-02-24T01:19:34.116Z,1.05
2018-02-24T01:20:33.852Z,1.08
2018-02-24T01:21:34.103Z,1.22
2018-02-24T01:22:34.132Z,1.2
2018-02-24T01:23:33.818Z,1.1
2018-02-24T01:24:33.806Z,1.16
2018-02-24T01:25:34.048Z,1.1
2018-02-24T01:26:33.778Z,1.08
2018-02-24T01:27:33.795Z,0.96
2018-02-24T01:28:33.500Z,0.99
2018-02-24T01:29:33.740Z,0.88
2018-02-24T01:30:33.982Z,0.86
2018-02-24T01:31:33.977Z,0.95
2018-02-24T01:32:33.961Z,0.86
2018-02-24T01:33:33.950Z,0.88
2018-02-24T01:34:33.694Z,0.88
2018-02-24T01:35:34.723Z,0.86
2018-02-24T01:36:33.666Z,0.84
2018-02-24T01:37:33.663Z,0.86
2018-02-24T01:38:33.900Z,0.87
2018-02-24T01:39:33.874Z,0.95
2018-02-24T01:40:33.621Z,0.94
2018-02-24T01:41:33.962Z,0.92
2018-02-24T01:42:33.593Z,0.92
2018-02-24T01:43:33.826Z,0.95
2018-02-24T01:44:33.817Z,0.98
2018-02-24T01:45:33.294Z,0.99
2018-02-24T01:46:33.534Z,0.98
2018-02-24T01:47:33.783Z,0.86
2018-02-24T01:48:33.511Z,0.87
2018-02-24T01:49:33.515Z,0.86
2018-02-24T01:50:33.743Z,0.84
2018-02-24T01:51:33.735Z,0.81
2018-02-24T01:52:33.734Z,0.86
2018-02-24T01:53:33.463Z,0.8
2018-02-24T01:54:33.733Z,0.69
2018-02-24T01:55:33.428Z,0.68
2018-02-24T01:56:33.669Z,0.7
2018-02-24T01:57:33.408Z,0.77
2018-02-24T01:58:33.164Z,0.87
2018-02-24T01:59:33.642Z,0.86
2018-02-24T02:00:33.115Z,0.88
2018-02-24T02:01:33.619Z,0.77
2018-02-24T02:02:33.595Z,0.77
2018-02-24T02:03:33.587Z,0.91
2018-02-24T02:04:33.572Z,0.83
2018-02-24T02:05:33.565Z,0.8
2018-02-24T02:06:33.548Z,0.76
2018-02-24T02:07:33.537Z,0.84
2018-02-24T02:08:33.531Z,0.87
2018-02-24T02:09:33.054Z,0.87
2018-02-24T02:10:33.243Z,0.86
2018-02-24T02:11:33.493Z,0.88
2018-02-24T02:12:33.473Z,0.87
2018-02-24T02:13:33.474Z,0.83
2018-02-24T02:14:33.458Z,0.77
2018-02-24T02:15:32.938Z,0.81
2018-02-24T02:16:33.175Z,0.88
2018-02-24T02:17:33.421Z,0.87
2018-02-24T02:18:33.151Z,0.77
2018-02-24T02:19:33.134Z,0.77
2018-02-24T02:20:32.872Z,0.77
2018-02-24T02:21:33.118Z,0.76
2018-02-24T02:22:33.112Z,0.74
2018-02-24T02:23:32.835Z,0.74
2018-02-24T02:24:33.344Z,0.66
2018-02-24T02:25:33.330Z,0.74
2018-02-24T02:26:33.307Z,0.8
2018-02-24T02:27:33.047Z,0.8
2018-02-24T02:28:32.772Z,0.68
2018-02-24T02:29:33.033Z,0.74
2018-02-24T02:30:32.765Z,0.78
2018-02-24T02:31:32.996Z,0.77
2018-02-24T02:32:32.982Z,0.74
2018-02-24T02:33:32.977Z,0.8
2018-02-24T02:34:32.961Z,0.76
2018-02-24T02:35:33.202Z,0.77
2018-02-24T02:36:33.192Z,0.8
2018-02-24T02:37:33.171Z,0.87
2018-02-24T02:38:33.166Z,0.83
2018-02-24T02:39:32.652Z,0.83
2018-02-24T02:40:32.920Z,0.76
2018-02-24T02:41:33.129Z,0.8
2018-02-24T02:42:33.128Z,0.78
2018-02-24T02:43:32.848Z,0.77
2018-02-24T02:44:32.838Z,0.77
2018-02-24T02:45:32.821Z,0.76
2018-02-24T02:46:33.111Z,0.73
2018-02-24T02:47:33.065Z,0.76
2018-02-24T02:48:33.042Z,0.76
2018-02-24T02:49:32.515Z,0.77
2018-02-24T02:50:33.022Z,0.8
2018-02-24T02:51:32.754Z,0.73
2018-02-24T02:52:32.738Z,0.77
2018-02-24T02:53:32.989Z,0.76
2018-02-24T02:54:32.972Z,0.76
2018-02-24T02:55:32.715Z,0.78
2018-02-24T02:56:32.950Z,0.65
2018-02-24T02:57:32.930Z,0.66
2018-02-24T02:58:32.924Z,0.63
2018-02-24T02:59:32.902Z,0.58
2018-02-24T03:00:32.650Z,0.47
2018-02-24T03:01:32.653Z,0.55
2018-02-24T03:02:32.881Z,0.56
2018-02-24T03:03:32.607Z,0.49
2018-02-24T03:04:32.861Z,0.62
2018-02-24T03:05:32.834Z,0.69
2018-02-24T03:06:32.820Z,0.65
2018-02-24T03:07:32.808Z,0.63
2018-02-24T03:08:32.791Z,0.55
2018-02-24T03:09:32.283Z,0.4
2018-02-24T03:10:32.783Z,0.34
2018-02-24T03:11:32.757Z,0.29
2018-02-24T03:12:32.743Z,0.29
2018-02-24T03:13:32.736Z,0.18
2018-02-24T03:14:32.737Z,0.19
2018-02-24T03:15:32.730Z,0.12
2018-02-24T03:16:32.693Z,-0.08
2018-02-24T03:17:32.697Z,-0.14
2018-02-24T03:18:32.414Z,-0.26
2018-02-24T03:19:32.666Z,-0.32
2018-02-24T03:20:32.660Z,-0.36
2018-02-24T03:21:32.629Z,-0.43
2018-02-24T03:22:32.628Z,-0.35
2018-02-24T03:23:32.607Z,-0.26
2018-02-24T03:24:32.601Z,-0.38
2018-02-24T03:25:32.335Z,-0.32
2018-02-24T03:26:32.311Z,-0.31
2018-02-24T03:27:32.306Z,-0.36
2018-02-24T03:28:32.282Z,-0.38
2018-02-24T03:29:32.529Z,-0.41
2018-02-24T03:30:32.535Z,-0.43
2018-02-24T03:31:32.063Z,-0.46
2018-02-24T03:32:32.231Z,-0.47
2018-02-24T03:33:32.469Z,-0.36
2018-02-24T03:34:32.481Z,-0.49
2018-02-24T03:35:32.468Z,-0.5
2018-02-24T03:36:32.178Z,-0.72
2018-02-24T03:37:32.169Z,-0.7
2018-02-24T03:38:32.403Z,-0.62
2018-02-24T03:39:32.399Z,-0.67
2018-02-24T03:40:32.379Z,-0.64
2018-02-24T03:41:32.114Z,-0.7
2018-02-24T03:42:32.355Z,-0.71
2018-02-24T03:43:32.338Z,-0.74
2018-02-24T03:44:32.071Z,-0.74
2018-02-24T03:45:32.315Z,-0.71
2018-02-24T03:46:32.301Z,-0.59
2018-02-24T03:47:32.042Z,-0.64
2018-02-24T03:48:32.274Z,-0.72
2018-02-24T03:49:31.751Z,-0.74
2018-02-24T03:50:31.736Z,-0.71
2018-02-24T03:51:32.227Z,-0.72
2018-02-24T03:52:32.214Z,-0.8
2018-02-24T03:53:32.202Z,-0.78
2018-02-24T03:54:31.943Z,-0.78
2018-02-24T03:55:31.926Z,-0.85
2018-02-24T03:56:32.174Z,-0.94
2018-02-24T03:57:32.150Z,-0.89
2018-02-24T03:58:32.140Z,-0.91
2018-02-24T03:59:31.869Z,-0.85
2018-02-24T04:00:32.117Z,-0.85
2018-02-24T04:01:32.094Z,-0.93
2018-02-24T04:02:32.083Z,-0.83
2018-02-24T04:03:32.068Z,-0.85
2018-02-24T04:04:32.061Z,-0.86
2018-02-24T04:05:32.049Z,-1.04
2018-02-24T04:06:32.341Z,-1.04
2018-02-24T04:07:32.023Z,-1.11
2018-02-24T04:08:32.008Z,-1.11
2018-02-24T04:09:31.996Z,-1.12
2018-02-24T04:10:31.988Z,-1.15
2018-02-24T04:11:31.962Z,-1.2
2018-02-24T04:12:31.946Z,-1.3
2018-02-24T04:13:31.678Z,-1.33
2018-02-24T04:14:31.684Z,-1.37
2018-02-24T04:15:31.925Z,-1.33
2018-02-24T04:16:31.869Z,-1.3
2018-02-24T04:17:31.634Z,-1.41
2018-02-24T04:18:31.869Z,-1.38
2018-02-24T04:19:31.872Z,-1.41
2018-02-24T04:20:31.838Z,-1.37
2018-02-24T04:21:33.081Z,-1.43
2018-02-24T04:22:31.557Z,-1.46
2018-02-24T04:23:31.791Z,-1.35
2018-02-24T04:24:31.527Z,-1.3
2018-02-24T04:25:31.775Z,-1.23
2018-02-24T04:26:31.510Z,-1.25
2018-02-24T04:27:31.738Z,-1.29
2018-02-24T04:28:31.470Z,-1.33
2018-02-24T04:29:31.711Z,-1.3
2018-02-24T04:30:31.442Z,-1.35
2018-02-24T04:31:31.726Z,-1.33
2018-02-24T04:32:31.688Z,-1.38
2018-02-24T04:33:31.405Z,-1.38
2018-02-24T04:34:31.388Z,-1.46
2018-02-24T04:35:31.374Z,-1.44
2018-02-24T04:36:31.636Z,-1.43
2018-02-24T04:37:31.354Z,-1.4
2018-02-24T04:38:31.588Z,-1.41
2018-02-24T04:39:31.582Z,-1.4
2018-02-24T04:40:31.566Z,-1.44
2018-02-24T04:41:31.543Z,-1.53
2018-02-24T04:42:31.277Z,-1.62
2018-02-24T04:43:31.524Z,-1.59
2018-02-24T04:44:31.289Z,-1.69
2018-02-24T04:45:31.489Z,-1.58
2018-02-24T04:46:31.476Z,-1.64
2018-02-24T04:47:31.474Z,-1.54
2018-02-24T04:48:31.454Z,-1.58
2018-02-24T04:49:31.452Z,-1.65
2018-02-24T04:50:31.427Z,-1.62
2018-02-24T04:51:31.163Z,-1.71
2018-02-24T04:52:31.158Z,-1.76
2018-02-24T04:53:31.392Z,-1.54
2018-02-24T04:54:31.141Z,-1.48
2018-02-24T04:55:31.357Z,-1.53
2018-02-24T04:56:31.336Z,-1.66
2018-02-24T04:57:30.819Z,-1.68
2018-02-24T04:58:31.056Z,-1.69
2018-02-24T04:59:31.314Z,-1.66
2018-02-24T05:00:31.271Z,-1.76
2018-02-24T05:01:31.273Z,-1.69
2018-02-24T05:02:31.258Z,-1.76
2018-02-24T05:03:31.240Z,-1.71
2018-02-24T05:04:31.237Z,-1.86
2018-02-24T05:05:31.210Z,-1.83
2018-02-24T05:06:30.947Z,-1.79
2018-02-24T05:07:32.224Z,-1.72
2018-02-24T05:08:31.113Z,-1.87
2018-02-24T05:09:31.159Z,-1.82
2018-02-24T05:10:31.161Z,-1.87
2018-02-24T05:11:31.126Z,-1.82
2018-02-24T05:12:30.850Z,-1.76
2018-02-24T05:13:31.104Z,-1.76
2018-02-24T05:14:31.082Z,-1.87
2018-02-24T05:15:31.069Z,-1.79
2018-02-24T05:16:30.794Z,-1.89
2018-02-24T05:17:31.046Z,-1.9
2018-02-24T05:18:31.029Z,-1.86
2018-02-24T05:19:31.005Z,-1.86
2018-02-24T05:20:31.003Z,-1.79
2018-02-24T05:21:30.985Z,-1.84
2018-02-24T05:22:30.968Z,-1.76
2018-02-24T05:23:30.710Z,-1.72
2018-02-24T05:24:30.709Z,-1.82
2018-02-24T05:25:30.672Z,-1.9
2018-02-24T05:26:30.662Z,-1.98
2018-02-24T05:27:30.413Z,-1.94
2018-02-24T05:28:30.666Z,-1.92
2018-02-24T05:29:30.612Z,-1.89
2018-02-24T05:30:30.851Z,-2
2018-02-24T05:31:30.848Z,-1.98
2018-02-24T05:32:30.821Z,-2.1
2018-02-24T05:33:30.809Z,-2.18
2018-02-24T05:34:30.291Z,-2.15
2018-02-24T05:35:30.781Z,-2.07
2018-02-24T05:36:30.766Z,-1.86
2018-02-24T05:37:30.748Z,-1.87
2018-02-24T05:38:30.741Z,-1.94
2018-02-24T05:39:30.732Z,-2.08
2018-02-24T05:40:30.709Z,-2.12
2018-02-24T05:41:30.694Z,-2.19
2018-02-24T05:42:30.426Z,-2.28
2018-02-24T05:43:30.663Z,-2.22
2018-02-24T05:44:30.659Z,-2.25
2018-02-24T05:45:30.382Z,-2.38
2018-02-24T05:46:30.625Z,-2.35
2018-02-24T05:47:30.614Z,-2.41
2018-02-24T05:48:30.349Z,-2.42
2018-02-24T05:49:30.076Z,-2.4
2018-02-24T05:50:30.566Z,-2.4
2018-02-24T05:51:30.299Z,-2.42
2018-02-24T05:52:30.540Z,-2.32
2018-02-24T05:53:30.523Z,-2.34
2018-02-24T05:54:30.258Z,-2.41
2018-02-24T05:55:30.503Z,-2.28
2018-02-24T05:56:30.490Z,-2.28
2018-02-24T05:57:30.463Z,-2.32
2018-02-24T05:58:30.201Z,-2.32
2018-02-24T05:59:30.438Z,-2.45
2018-02-24T06:00:30.170Z,-2.37
2018-02-24T06:01:30.416Z,-2.41
2018-02-24T06:02:30.158Z,-2.4
2018-02-24T06:03:30.387Z,-2.32
2018-02-24T06:04:30.366Z,-2.28
2018-02-24T06:05:30.348Z,-2.23
2018-02-24T06:06:30.085Z,-2.3
2018-02-24T06:07:30.071Z,-2.35
2018-02-24T06:08:30.603Z,-2.4
2018-02-24T06:09:30.327Z,-2.4
2018-02-24T06:10:30.277Z,-2.42
2018-02-24T06:11:30.277Z,-2.38
2018-02-24T06:12:30.277Z,-2.45
2018-02-24T06:13:30.237Z,-2.38
2018-02-24T06:14:30.223Z,-2.47
2018-02-24T06:15:30.215Z,-2.38
2018-02-24T06:16:30.186Z,-2.42
2018-02-24T06:17:29.920Z,-2.41
2018-02-24T06:18:30.164Z,-2.5
2018-02-24T06:19:30.145Z,-2.56
2018-02-24T06:20:30.133Z,-2.52
2018-02-24T06:21:30.129Z,-2.58
2018-02-24T06:22:29.855Z,-2.58
2018-02-24T06:23:31.945Z,-2.47
2018-02-24T06:24:29.817Z,-2.41
2018-02-24T06:25:30.056Z,-2.35
2018-02-24T06:26:29.547Z,-2.45
2018-02-24T06:27:30.029Z,-2.44
2018-02-24T06:28:29.776Z,-2.47
2018-02-24T06:29:29.761Z,-2.5
2018-02-24T06:30:29.731Z,-2.52
2018-02-24T06:31:29.977Z,-2.56
2018-02-24T06:32:29.702Z,-2.41
2018-02-24T06:33:29.945Z,-2.38
2018-02-24T06:34:29.927Z,-2.32
2018-02-24T06:35:29.664Z,-2.37
2018-02-24T06:36:29.908Z,-2.41
2018-02-24T06:37:29.639Z,-2.41
2018-02-24T06:38:32.020Z,-2.52
2018-02-24T06:39:29.853Z,-2.47
2018-02-24T06:40:29.841Z,-2.35
2018-02-24T06:41:29.829Z,-2.41
2018-02-24T06:42:29.829Z,-2.23
2018-02-24T06:43:29.811Z,-2.26
2018-02-24T06:44:29.796Z,-2.23
2018-02-24T06:45:29.515Z,-2.3
2018-02-24T06:46:29.761Z,-2.41
2018-02-24T06:47:29.750Z,-2.37
2018-02-24T06:48:29.738Z,-2.41
2018-02-24T06:49:29.746Z,-2.5
2018-02-24T06:50:29.744Z,-2.45
2018-02-24T06:51:29.425Z,-2.41
2018-02-24T06:52:29.666Z,-2.56
2018-02-24T06:53:29.656Z,-2.56
2018-02-24T06:54:29.387Z,-2.53
2018-02-24T06:55:29.116Z,-2.56
2018-02-24T06:56:29.611Z,-2.47
2018-02-24T06:57:29.597Z,-2.44
2018-02-24T06:58:29.080Z,-2.41
2018-02-24T06:59:29.320Z,-2.41
2018-02-24T07:00:29.546Z,-2.38
2018-02-24T07:01:29.537Z,-2.44
2018-02-24T07:02:29.520Z,-2.38
2018-02-24T07:03:29.515Z,-2.4
2018-02-24T07:04:28.987Z,-2.38
2018-02-24T07:05:29.223Z,-2.42
2018-02-24T07:06:29.470Z,-2.42
2018-02-24T07:07:29.547Z,-2.4
2018-02-24T07:08:29.430Z,-2.42
2018-02-24T07:09:29.418Z,-2.34
2018-02-24T07:10:29.161Z,-2.44
2018-02-24T07:11:29.143Z,-2.4
2018-02-24T07:12:29.122Z,-2.44
2018-02-24T07:13:29.367Z,-2.34
2018-02-24T07:14:28.858Z,-2.4
2018-02-24T07:15:29.339Z,-2.38
2018-02-24T07:16:29.319Z,-2.32
2018-02-24T07:17:29.066Z,-2.26
2018-02-24T07:18:29.353Z,-2.18
2018-02-24T07:19:29.316Z,-2.21
2018-02-24T07:20:29.341Z,-2.26
2018-02-24T07:21:28.996Z,-2.22
2018-02-24T07:22:29.235Z,-2.15
2018-02-24T07:23:29.217Z,-2.04
2018-02-24T07:24:30.327Z,-2.04
2018-02-24T07:25:29.203Z,-2.01
2018-02-24T07:26:29.188Z,-2
2018-02-24T07:27:28.923Z,-1.9
2018-02-24T07:28:29.154Z,-1.87
2018-02-24T07:29:29.158Z,-1.84
2018-02-24T07:30:28.619Z,-1.87
2018-02-24T07:31:29.127Z,-1.66
2018-02-24T07:32:28.853Z,-1.59
2018-02-24T07:33:29.103Z,-1.15
2018-02-24T07:34:29.084Z,-0.65
2018-02-24T07:35:28.830Z,-0.11
2018-02-24T07:36:28.792Z,0.19
2018-02-24T07:37:28.779Z,0.52
2018-02-24T07:38:28.793Z,0.68
2018-02-24T07:39:30.118Z,0.78
2018-02-24T07:40:28.774Z,1.05
2018-02-24T07:41:28.994Z,1.22
2018-02-24T07:42:28.969Z,1.2
2018-02-24T07:43:28.707Z,1.41
2018-02-24T07:44:28.443Z,1.81
2018-02-24T07:45:28.936Z,2.17
2018-02-24T07:46:28.933Z,2.44
2018-02-24T07:47:28.658Z,2.25
2018-02-24T07:48:28.909Z,2.13
2018-02-24T07:49:28.946Z,2.14
2018-02-24T07:50:28.948Z,2.11
2018-02-24T07:51:28.643Z,2.33
2018-02-24T07:52:28.870Z,2.32
2018-02-24T07:53:28.607Z,2.43
2018-02-24T07:54:28.594Z,2.54
2018-02-24T07:55:28.587Z,2.77
2018-02-24T07:56:28.844Z,2.67
2018-02-24T07:57:28.574Z,2.54
2018-02-24T07:58:28.563Z,2.25
2018-02-24T07:59:28.331Z,2.25
2018-02-24T08:00:28.809Z,2.08
2018-02-24T08:01:28.795Z,1.87
2018-02-24T08:02:28.535Z,1.92
2018-02-24T08:03:28.767Z,1.92
2018-02-24T08:04:28.785Z,2.22
2018-02-24T08:05:28.757Z,2.35
2018-02-24T08:06:28.748Z,2.14
2018-02-24T08:07:28.484Z,2.14
2018-02-24T08:08:28.469Z,2.04
2018-02-24T08:09:28.715Z,2.1
2018-02-24T08:10:28.712Z,2.02
2018-02-24T08:11:28.196Z,1.97
2018-02-24T08:12:28.693Z,2.15
2018-02-24T08:13:28.683Z,2.49
2018-02-24T08:14:28.674Z,2.95
2018-02-24T08:15:28.676Z,3.25
2018-02-24T08:16:28.659Z,3.59
2018-02-24T08:17:28.448Z,3.81
2018-02-24T08:18:28.397Z,4.22
2018-02-24T08:19:28.388Z,4.08
2018-02-24T08:20:28.369Z,4.13
2018-02-24T08:21:28.122Z,4.02
2018-02-24T08:22:28.618Z,3.6
2018-02-24T08:23:28.612Z,3.26
2018-02-24T08:24:28.590Z,2.9
2018-02-24T08:25:28.586Z,2.86
2018-02-24T08:26:28.581Z,2.68
2018-02-24T08:27:28.569Z,2.82
2018-02-24T08:28:28.561Z,2.92
2018-02-24T08:29:28.555Z,2.74
2018-02-24T08:30:28.553Z,2.47
2018-02-24T08:31:28.548Z,2.53
2018-02-24T08:32:28.026Z,2.14
2018-02-24T08:33:28.277Z,2.14
2018-02-24T08:34:28.261Z,1.88
2018-02-24T08:35:28.251Z,1.53
2018-02-24T08:36:28.503Z,1.45
2018-02-24T08:37:28.488Z,1.04
2018-02-24T08:38:28.220Z,0.8
2018-02-24T08:40:31.865Z,0.69
2018-02-24T08:41:28.453Z,0.63
2018-02-24T08:42:28.189Z,0.5
2018-02-24T08:43:28.437Z,0.43
2018-02-24T08:44:28.420Z,0.22
2018-02-24T08:45:28.419Z,0.25
2018-02-24T08:46:28.404Z,0.23
2018-02-24T08:47:28.389Z,0.15
2018-02-24T08:48:29.131Z,0.07
2018-02-24T08:49:28.112Z,0.07
2018-02-24T08:50:28.350Z,-0.1
2018-02-24T08:51:28.347Z,-0.26
2018-02-24T08:52:28.083Z,-0.26
2018-02-24T08:53:28.329Z,-0.17
2018-02-24T08:54:28.054Z,-0.28
2018-02-24T08:55:28.299Z,-0.15
2018-02-24T08:56:28.284Z,-0.29
2018-02-24T08:57:28.017Z,-0.34
2018-02-24T08:58:28.262Z,-0.41
2018-02-24T08:59:28.269Z,-0.41
2018-02-24T09:00:28.242Z,-0.44
2018-02-24T09:01:28.527Z,-0.39
2018-02-24T09:02:28.215Z,-0.31
2018-02-24T09:03:27.960Z,-0.2
2018-02-24T09:04:28.037Z,-0.21
2018-02-24T09:05:27.934Z,-0.25
2018-02-24T09:06:28.174Z,-0.13
2018-02-24T09:07:28.158Z,-0.08
2018-02-24T09:08:27.965Z,0.03
2018-02-24T09:09:27.880Z,-0.07
2018-02-24T09:10:28.122Z,-0.1
2018-02-24T09:11:31.308Z,-0.1
2018-02-24T09:12:28.095Z,-0.03
2018-02-24T09:13:27.832Z,-0.08
2018-02-24T09:14:28.078Z,0
2018-02-24T09:15:27.811Z,0.1
2018-02-24T09:16:27.798Z,0.16
2018-02-24T09:17:27.820Z,0.19
2018-02-24T09:18:27.808Z,0.12
2018-02-24T09:19:27.516Z,0.32
2018-02-24T09:20:28.054Z,0.39
2018-02-24T09:21:27.988Z,0.49
2018-02-24T09:22:28.026Z,0.59
2018-02-24T09:23:27.997Z,0.69
2018-02-24T09:24:27.723Z,0.66
2018-02-24T09:25:27.764Z,0.77
2018-02-24T09:26:27.685Z,0.95
2018-02-24T09:27:27.667Z,0.96
2018-02-24T09:28:27.904Z,0.95
2018-02-24T09:29:27.657Z,0.99
2018-02-24T09:30:27.380Z,1.12
2018-02-24T09:31:27.616Z,1.19
2018-02-24T09:32:27.620Z,1.14
2018-02-24T09:33:27.600Z,1.22
2018-02-24T09:34:27.848Z,1.16
2018-02-24T09:35:27.825Z,1.17
2018-02-24T09:36:27.926Z,1.16
2018-02-24T09:37:27.802Z,1.22
2018-02-24T09:38:27.804Z,1.42
2018-02-24T09:39:27.536Z,1.41
2018-02-24T09:40:27.774Z,1.4
2018-02-24T09:41:27.260Z,1.4
2018-02-24T09:42:28.755Z,1.48
2018-02-24T09:43:27.487Z,1.4
2018-02-24T09:44:27.226Z,1.38
2018-02-24T09:45:27.518Z,1.32
2018-02-24T09:46:27.715Z,1.26
2018-02-24T09:47:27.696Z,1.24
2018-02-24T09:48:27.676Z,1.14
2018-02-24T09:49:27.165Z,1.14
2018-02-24T09:50:27.408Z,1.4
2018-02-24T09:51:27.655Z,1.48
2018-02-24T09:52:27.378Z,1.52
2018-02-24T09:53:27.635Z,1.68
2018-02-24T09:54:27.105Z,1.81
2018-02-24T09:55:27.095Z,1.85
2018-02-24T09:56:27.602Z,1.87
2018-02-24T09:57:27.595Z,1.87
2018-02-24T09:58:27.318Z,1.81
2018-02-24T09:59:27.307Z,1.8
2018-02-24T10:00:27.556Z,1.81
2018-02-24T10:01:27.551Z,1.77
2018-02-24T10:02:27.546Z,1.63
2018-02-24T10:03:27.269Z,1.66
2018-02-24T10:04:27.254Z,1.63
2018-02-24T10:05:27.241Z,1.53
2018-02-24T10:06:27.487Z,1.62
2018-02-24T10:07:27.487Z,1.67
2018-02-24T10:08:27.464Z,1.8
2018-02-24T10:09:26.943Z,1.85
2018-02-24T10:10:27.187Z,1.99
2018-02-24T10:11:27.179Z,2.04
2018-02-24T10:12:30.095Z,2.18
2018-02-24T10:13:27.408Z,2.2
2018-02-24T10:14:27.397Z,2.15
2018-02-24T10:15:27.144Z,2.28
2018-02-24T10:16:27.386Z,2.13
2018-02-24T10:17:26.862Z,2.1
2018-02-24T10:18:27.098Z,2.06
2018-02-24T10:19:27.089Z,2.06
2018-02-24T10:20:27.334Z,2.1
2018-02-24T10:21:27.334Z,2.14
2018-02-24T10:22:26.803Z,2.17
2018-02-24T10:23:27.051Z,2.17
2018-02-24T10:24:27.046Z,2.08
2018-02-24T10:25:27.285Z,2.08
2018-02-24T10:56:10.144Z,2.71
2018-02-24T10:57:10.111Z,2.69
2018-02-24T10:58:10.088Z,2.86
2018-02-24T10:59:10.330Z,2.89
2018-02-24T11:00:11.118Z,2.87
2018-02-24T11:01:10.314Z,2.9
2018-02-24T11:02:10.283Z,3.05
2018-02-24T11:03:09.766Z,3.1
2018-02-24T11:04:10.014Z,3.22
2018-02-24T11:05:10.574Z,3.26
2018-02-24T11:06:10.339Z,3.25
2018-02-24T11:07:09.983Z,3.37
2018-02-24T11:08:10.206Z,3.26
2018-02-24T11:09:09.962Z,3.21
2018-02-24T11:10:10.399Z,3.1
2018-02-24T11:11:10.225Z,2.93
2018-02-24T11:12:10.167Z,3.08
2018-02-24T11:13:10.174Z,3.04
2018-02-24T11:14:10.165Z,2.98
2018-02-24T11:15:10.765Z,2.77
2018-02-24T11:16:10.281Z,2.74
2018-02-24T11:17:09.864Z,2.75
2018-02-24T11:18:10.108Z,2.89
2018-02-24T11:19:10.089Z,2.8
2018-02-24T11:20:10.579Z,2.86
2018-02-24T11:21:10.143Z,2.9
2018-02-24T11:22:10.069Z,2.89
2018-02-24T11:23:10.047Z,3.01
2018-02-24T11:24:09.786Z,3.04
2018-02-24T11:25:10.226Z,2.86
2018-02-24T11:26:10.219Z,2.71
2018-02-24T11:27:10.026Z,2.87
2018-02-24T11:28:10.001Z,2.74
2018-02-24T11:29:10.066Z,2.83
2018-02-24T11:30:10.419Z,2.89
2018-02-24T11:31:10.272Z,2.86
2018-02-24T11:32:09.972Z,2.93
2018-02-24T11:33:09.966Z,2.9
2018-02-24T11:34:09.945Z,2.95
2018-02-24T11:35:10.619Z,2.86
2018-02-24T11:36:09.864Z,2.98
2018-02-24T11:37:09.923Z,3.08
2018-02-24T11:38:09.656Z,3.28
2018-02-24T11:39:09.885Z,3.42
2018-02-24T11:40:10.056Z,3.42
2018-02-24T11:41:09.615Z,3.51
2018-02-24T11:42:09.883Z,3.59
2018-02-24T11:43:09.847Z,3.65
2018-02-24T11:44:09.585Z,3.68
2018-02-24T11:45:10.327Z,3.7
2018-02-24T11:46:10.031Z,3.63
2018-02-24T11:47:09.812Z,3.6
2018-02-24T11:48:09.801Z,3.47
2018-02-24T11:49:09.279Z,3.41
2018-02-24T11:50:09.982Z,3.55
2018-02-24T11:51:10.167Z,3.58
2018-02-24T11:52:09.271Z,3.69
2018-02-24T11:53:09.494Z,3.73
2018-02-24T11:54:09.747Z,3.83
2018-02-24T11:55:10.186Z,3.87
2018-02-24T11:56:09.990Z,3.69
2018-02-24T11:57:09.451Z,3.77
2018-02-24T11:58:09.195Z,3.74
2018-02-24T11:59:09.684Z,3.81
2018-02-24T12:00:10.151Z,3.91
2018-02-24T12:01:10.013Z,3.84
2018-02-24T12:02:09.431Z,3.88
2018-02-24T12:03:09.661Z,3.88
2018-02-24T12:04:09.637Z,3.84
2018-02-24T12:05:10.039Z,3.81
2018-02-24T12:06:09.758Z,3.68
2018-02-24T12:07:09.359Z,3.68
2018-02-24T12:08:09.338Z,3.69
2018-02-24T12:09:09.347Z,3.73
2018-02-24T12:10:09.980Z,3.74
2018-02-24T12:11:12.017Z,3.87
2018-02-24T12:12:09.570Z,3.92
2018-02-24T12:13:09.551Z,3.84
2018-02-24T12:14:09.293Z,3.96
2018-02-24T12:15:09.960Z,3.94
2018-02-24T12:16:09.521Z,4.14
2018-02-24T12:17:09.531Z,4.19
2018-02-24T12:18:09.251Z,4.34
2018-02-24T12:19:09.504Z,4.4
2018-02-24T12:20:09.945Z,4.41
2018-02-24T12:21:09.489Z,4.34
2018-02-24T12:22:09.466Z,4.35
2018-02-24T12:23:09.199Z,4.35
2018-02-24T12:24:08.930Z,4.38
2018-02-24T12:25:09.898Z,4.38
2018-02-24T12:26:11.335Z,4.44
2018-02-24T12:27:09.191Z,4.4
2018-02-24T12:28:09.173Z,4.35
2018-02-24T12:29:09.401Z,4.35
2018-02-24T12:30:09.517Z,4.35
2018-02-24T12:31:09.384Z,4.37
2018-02-24T12:32:09.123Z,4.49
2018-02-24T12:33:09.156Z,4.45
2018-02-24T12:34:09.097Z,4.56
2018-02-24T12:35:09.403Z,4.58
2018-02-24T12:36:09.114Z,4.55
2018-02-24T12:37:09.344Z,4.73
2018-02-24T12:38:08.807Z,4.6
2018-02-24T12:39:09.077Z,4.66
2018-02-24T12:40:09.785Z,4.67
2018-02-24T12:41:09.056Z,4.68
2018-02-24T12:42:09.289Z,4.73
2018-02-24T12:43:09.019Z,4.8
2018-02-24T12:44:09.008Z,4.86
2018-02-24T12:45:09.673Z,4.82
2018-02-24T12:46:09.256Z,4.68
2018-02-24T12:47:09.243Z,4.73
2018-02-24T12:48:08.972Z,4.7
2018-02-24T12:49:08.962Z,4.7
2018-02-24T12:50:09.819Z,4.67
2018-02-24T12:51:09.040Z,4.77
2018-02-24T12:52:09.042Z,4.77
2018-02-24T12:53:08.946Z,4.66
2018-02-24T12:54:08.922Z,4.55
2018-02-24T12:55:09.302Z,4.58
2018-02-24T12:56:08.913Z,4.52
2018-02-24T12:57:09.148Z,4.55
2018-02-24T12:58:09.146Z,4.59
2018-02-24T12:59:09.149Z,4.53
2018-02-24T13:00:09.508Z,4.5
2018-02-24T13:01:08.853Z,4.44
2018-02-24T13:02:09.106Z,4.49
2018-02-24T13:03:09.093Z,4.44
2018-02-24T13:04:08.882Z,4.6
2018-02-24T13:05:08.803Z,4.58
2018-02-24T13:06:09.172Z,4.56
2018-02-24T13:07:08.805Z,4.53
2018-02-24T13:08:08.898Z,4.48
2018-02-24T13:09:09.093Z,4.48
2018-02-24T13:10:09.174Z,4.42
2018-02-24T13:11:08.832Z,4.28
2018-02-24T13:12:08.896Z,4.38
2018-02-24T13:13:08.771Z,4.41
2018-02-24T13:14:08.990Z,4.52
2018-02-24T13:15:08.969Z,4.52
2018-02-24T13:16:08.484Z,4.56
2018-02-24T13:17:08.994Z,4.53
2018-02-24T13:18:08.960Z,4.53
2018-02-24T13:19:08.947Z,4.52
2018-02-24T13:20:08.996Z,4.55
2018-02-24T13:21:08.670Z,4.53
2018-02-24T13:22:08.918Z,4.6
2018-02-24T13:23:08.909Z,4.44
2018-02-24T13:24:08.644Z,4.41
2018-02-24T13:25:09.198Z,4.37
2018-02-24T13:26:08.625Z,4.44
2018-02-24T13:27:08.861Z,4.44
2018-02-24T13:28:08.601Z,4.42
2018-02-24T13:29:08.852Z,4.4
2018-02-24T13:30:08.856Z,4.35
2018-02-24T13:31:08.592Z,4.31
2018-02-24T13:32:08.819Z,4.4
2018-02-24T13:33:08.554Z,4.42
2018-02-24T13:34:08.810Z,4.52
2018-02-24T13:35:09.108Z,4.55
2018-02-24T13:36:08.533Z,4.6
2018-02-24T13:37:08.771Z,4.73
2018-02-24T13:38:08.563Z,4.77
2018-02-24T13:39:08.750Z,4.73
2018-02-24T13:40:09.177Z,4.73
2018-02-24T13:41:08.481Z,4.86
2018-02-24T13:42:08.267Z,4.7
2018-02-24T13:43:08.716Z,4.87